sensor_id;sensor_type;location;lat;lon;timestamp;P1;durP1;ratioP1;P2;durP2;ratioP2
39554;SDS011;25231;48.746;9.234;2023-02-15T00:02:25;33.17;;;23.23;;
39554;SDS011;25231;48.746;9.234;2023-02-15T00:04:50;31.07;;;21.30;;
39554;SDS011;25231;48.746;9.234;2023-02-15T00:07:16;30.17;;;21.77;;
39554;SDS011;25231;48.746;9.234;2023-02-15T00:09:44;27.13;;;20.70;;
39554;SDS011;25231;48.746;9.234;2023-02-15T00:12:11;31.23;;;21.57;;
39554;SDS011;25231;48.746;9.234;2023-02-15T00:14:36;29.00;;;20.53;;
39554;SDS011;25231;48.746;9.234;2023-02-15T00:17:02;30.13;;;21.90;;
39554;SDS011;25231;48.746;9.234;2023-02-15T00:19:27;30.53;;;21.57;;
39554;SDS011;25231;48.746;9.234;2023-02-15T00:21:53;30.87;;;22.83;;
39554;SDS011;25231;48.746;9.234;2023-02-15T00:24:18;30.93;;;20.83;;
39554;SDS011;25231;48.746;9.234;2023-02-15T00:26:45;29.67;;;21.70;;
39554;SDS011;25231;48.746;9.234;2023-02-15T00:29:12;33.63;;;21.67;;
39554;SDS011;25231;48.746;9.234;2023-02-15T00:31:39;33.60;;;22.17;;
39554;SDS011;25231;48.746;9.234;2023-02-15T00:34:06;33.30;;;21.90;;
39554;SDS011;25231;48.746;9.234;2023-02-15T00:36:35;35.50;;;23.13;;
39554;SDS011;25231;48.746;9.234;2023-02-15T00:39:01;34.13;;;23.47;;
39554;SDS011;25231;48.746;9.234;2023-02-15T00:41:26;34.90;;;23.60;;
39554;SDS011;25231;48.746;9.234;2023-02-15T00:43:52;36.13;;;24.73;;
39554;SDS011;25231;48.746;9.234;2023-02-15T00:46:18;33.13;;;24.87;;
39554;SDS011;25231;48.746;9.234;2023-02-15T00:48:43;35.00;;;25.00;;
39554;SDS011;25231;48.746;9.234;2023-02-15T00:51:08;35.40;;;24.10;;
39554;SDS011;25231;48.746;9.234;2023-02-15T00:53:34;37.37;;;24.73;;
39554;SDS011;25231;48.746;9.234;2023-02-15T00:55:59;34.30;;;22.53;;
39554;SDS011;25231;48.746;9.234;2023-02-15T00:58:25;31.90;;;22.43;;
39554;SDS011;25231;48.746;9.234;2023-02-15T01:00:50;31.90;;;22.43;;
39554;SDS011;25231;48.746;9.234;2023-02-15T01:03:17;37.17;;;22.70;;
39554;SDS011;25231;48.746;9.234;2023-02-15T01:05:44;34.70;;;23.13;;
39554;SDS011;25231;48.746;9.234;2023-02-15T01:08:11;35.97;;;22.67;;
39554;SDS011;25231;48.746;9.234;2023-02-15T01:10:36;31.33;;;21.97;;
39554;SDS011;25231;48.746;9.234;2023-02-15T01:13:01;35.77;;;22.17;;
39554;SDS011;25231;48.746;9.234;2023-02-15T01:15:27;33.40;;;22.00;;
39554;SDS011;25231;48.746;9.234;2023-02-15T01:17:53;35.00;;;22.60;;
39554;SDS011;25231;48.746;9.234;2023-02-15T01:20:19;35.23;;;23.30;;
39554;SDS011;25231;48.746;9.234;2023-02-15T01:22:46;37.33;;;24.50;;
39554;SDS011;25231;48.746;9.234;2023-02-15T01:25:12;35.13;;;23.23;;
39554;SDS011;25231;48.746;9.234;2023-02-15T01:27:37;35.57;;;24.00;;
39554;SDS011;25231;48.746;9.234;2023-02-15T01:30:04;39.90;;;25.10;;
39554;SDS011;25231;48.746;9.234;2023-02-15T01:32:30;35.60;;;24.77;;
39554;SDS011;25231;48.746;9.234;2023-02-15T01:34:56;36.23;;;24.43;;
39554;SDS011;25231;48.746;9.234;2023-02-15T01:37:22;37.47;;;23.77;;
39554;SDS011;25231;48.746;9.234;2023-02-15T01:39:47;36.13;;;24.13;;
39554;SDS011;25231;48.746;9.234;2023-02-15T01:42:13;36.83;;;24.27;;
39554;SDS011;25231;48.746;9.234;2023-02-15T01:44:49;33.90;;;24.23;;
39554;SDS011;25231;48.746;9.234;2023-02-15T01:47:16;39.40;;;26.10;;
39554;SDS011;25231;48.746;9.234;2023-02-15T01:49:48;40.90;;;28.70;;
39554;SDS011;25231;48.746;9.234;2023-02-15T01:52:34;47.97;;;31.03;;
39554;SDS011;25231;48.746;9.234;2023-02-15T01:55:04;45.60;;;30.47;;
39554;SDS011;25231;48.746;9.234;2023-02-15T01:57:31;37.67;;;26.07;;
39554;SDS011;25231;48.746;9.234;2023-02-15T01:59:58;36.77;;;24.23;;
39554;SDS011;25231;48.746;9.234;2023-02-15T02:02:27;37.67;;;24.37;;
39554;SDS011;25231;48.746;9.234;2023-02-15T02:04:54;37.67;;;24.53;;
39554;SDS011;25231;48.746;9.234;2023-02-15T02:07:26;35.77;;;24.20;;
39554;SDS011;25231;48.746;9.234;2023-02-15T02:09:54;34.63;;;23.37;;
39554;SDS011;25231;48.746;9.234;2023-02-15T02:12:20;37.97;;;24.90;;
39554;SDS011;25231;48.746;9.234;2023-02-15T02:14:48;39.00;;;25.07;;
39554;SDS011;25231;48.746;9.234;2023-02-15T02:20:09;37.33;;;23.97;;
39554;SDS011;25231;48.746;9.234;2023-02-15T02:25:51;37.83;;;22.90;;
39554;SDS011;25231;48.746;9.234;2023-02-15T02:28:59;34.17;;;23.73;;
39554;SDS011;25231;48.746;9.234;2023-02-15T02:32:04;33.83;;;24.23;;
39554;SDS011;25231;48.746;9.234;2023-02-15T02:42:59;37.27;;;24.53;;
39554;SDS011;25231;48.746;9.234;2023-02-15T02:45:51;38.53;;;23.90;;
39554;SDS011;25231;48.746;9.234;2023-02-15T02:48:22;36.90;;;22.83;;
39554;SDS011;25231;48.746;9.234;2023-02-15T02:50:52;37.80;;;24.70;;
39554;SDS011;25231;48.746;9.234;2023-02-15T02:53:18;39.03;;;24.63;;
39554;SDS011;25231;48.746;9.234;2023-02-15T03:03:37;38.80;;;24.13;;
39554;SDS011;25231;48.746;9.234;2023-02-15T03:06:09;37.03;;;24.57;;
39554;SDS011;25231;48.746;9.234;2023-02-15T03:08:44;38.53;;;24.20;;
39554;SDS011;25231;48.746;9.234;2023-02-15T03:11:15;37.90;;;23.27;;
39554;SDS011;25231;48.746;9.234;2023-02-15T03:13:40;38.03;;;23.50;;
39554;SDS011;25231;48.746;9.234;2023-02-15T03:16:08;36.93;;;23.60;;
39554;SDS011;25231;48.746;9.234;2023-02-15T03:19:07;36.40;;;23.17;;
39554;SDS011;25231;48.746;9.234;2023-02-15T03:21:39;43.67;;;25.23;;
39554;SDS011;25231;48.746;9.234;2023-02-15T03:24:29;39.10;;;24.10;;
39554;SDS011;25231;48.746;9.234;2023-02-15T03:27:00;37.17;;;24.53;;
39554;SDS011;25231;48.746;9.234;2023-02-15T03:29:29;38.07;;;25.27;;
39554;SDS011;25231;48.746;9.234;2023-02-15T03:31:58;41.37;;;26.80;;
39554;SDS011;25231;48.746;9.234;2023-02-15T03:34:26;41.30;;;26.30;;
39554;SDS011;25231;48.746;9.234;2023-02-15T03:39:57;40.80;;;28.93;;
39554;SDS011;25231;48.746;9.234;2023-02-15T03:43:34;44.43;;;26.23;;
39554;SDS011;25231;48.746;9.234;2023-02-15T03:45:40;41.03;;;27.83;;
39554;SDS011;25231;48.746;9.234;2023-02-15T03:48:20;45.53;;;29.43;;
39554;SDS011;25231;48.746;9.234;2023-02-15T03:50:49;38.37;;;27.30;;
39554;SDS011;25231;48.746;9.234;2023-02-15T03:53:35;38.97;;;26.87;;
39554;SDS011;25231;48.746;9.234;2023-02-15T03:56:02;38.27;;;26.73;;
39554;SDS011;25231;48.746;9.234;2023-02-15T03:58:28;37.93;;;26.67;;
39554;SDS011;25231;48.746;9.234;2023-02-15T04:01:22;42.47;;;26.33;;
39554;SDS011;25231;48.746;9.234;2023-02-15T04:04:09;42.13;;;26.20;;
39554;SDS011;25231;48.746;9.234;2023-02-15T04:06:41;38.70;;;26.03;;
39554;SDS011;25231;48.746;9.234;2023-02-15T04:09:06;35.10;;;23.83;;
39554;SDS011;25231;48.746;9.234;2023-02-15T04:11:50;37.50;;;24.60;;
39554;SDS011;25231;48.746;9.234;2023-02-15T04:14:15;38.63;;;25.37;;
39554;SDS011;25231;48.746;9.234;2023-02-15T04:16:59;36.20;;;24.57;;
39554;SDS011;25231;48.746;9.234;2023-02-15T04:19:24;37.23;;;25.07;;
39554;SDS011;25231;48.746;9.234;2023-02-15T04:22:08;43.07;;;25.20;;
39554;SDS011;25231;48.746;9.234;2023-02-15T04:24:53;41.77;;;26.30;;
39554;SDS011;25231;48.746;9.234;2023-02-15T04:27:37;40.03;;;25.33;;
39554;SDS011;25231;48.746;9.234;2023-02-15T04:30:04;38.47;;;25.13;;
39554;SDS011;25231;48.746;9.234;2023-02-15T04:32:30;37.63;;;25.97;;
39554;SDS011;25231;48.746;9.234;2023-02-15T04:34:56;39.00;;;25.87;;
39554;SDS011;25231;48.746;9.234;2023-02-15T04:37:21;39.47;;;25.27;;
39554;SDS011;25231;48.746;9.234;2023-02-15T04:39:47;38.13;;;25.50;;
39554;SDS011;25231;48.746;9.234;2023-02-15T04:42:12;37.47;;;25.37;;
39554;SDS011;25231;48.746;9.234;2023-02-15T04:44:38;37.00;;;25.37;;
39554;SDS011;25231;48.746;9.234;2023-02-15T04:47:03;35.00;;;24.60;;
39554;SDS011;25231;48.746;9.234;2023-02-15T04:49:29;36.97;;;25.60;;
39554;SDS011;25231;48.746;9.234;2023-02-15T04:51:54;39.03;;;25.47;;
39554;SDS011;25231;48.746;9.234;2023-02-15T04:54:20;36.57;;;25.70;;
39554;SDS011;25231;48.746;9.234;2023-02-15T04:56:45;36.63;;;25.07;;
39554;SDS011;25231;48.746;9.234;2023-02-15T04:59:11;39.40;;;26.10;;
39554;SDS011;25231;48.746;9.234;2023-02-15T05:01:37;34.73;;;24.30;;
39554;SDS011;25231;48.746;9.234;2023-02-15T05:04:02;36.97;;;24.53;;
39554;SDS011;25231;48.746;9.234;2023-02-15T05:06:28;36.30;;;24.13;;
39554;SDS011;25231;48.746;9.234;2023-02-15T05:08:54;37.60;;;25.13;;
39554;SDS011;25231;48.746;9.234;2023-02-15T05:11:20;36.83;;;24.10;;
39554;SDS011;25231;48.746;9.234;2023-02-15T05:13:46;39.27;;;24.83;;
39554;SDS011;25231;48.746;9.234;2023-02-15T05:16:11;38.33;;;24.20;;
39554;SDS011;25231;48.746;9.234;2023-02-15T05:18:36;37.13;;;24.43;;
39554;SDS011;25231;48.746;9.234;2023-02-15T05:21:02;38.00;;;24.40;;
39554;SDS011;25231;48.746;9.234;2023-02-15T05:23:27;37.90;;;25.43;;
39554;SDS011;25231;48.746;9.234;2023-02-15T05:34:42;39.73;;;24.90;;
39554;SDS011;25231;48.746;9.234;2023-02-15T05:37:07;37.63;;;25.87;;
39554;SDS011;25231;48.746;9.234;2023-02-15T05:39:33;42.63;;;26.40;;
39554;SDS011;25231;48.746;9.234;2023-02-15T05:41:59;38.67;;;25.90;;
39554;SDS011;25231;48.746;9.234;2023-02-15T05:44:25;35.53;;;24.87;;
39554;SDS011;25231;48.746;9.234;2023-02-15T05:46:50;35.33;;;25.33;;
39554;SDS011;25231;48.746;9.234;2023-02-15T05:49:15;39.30;;;25.73;;
39554;SDS011;25231;48.746;9.234;2023-02-15T05:51:41;37.10;;;24.47;;
39554;SDS011;25231;48.746;9.234;2023-02-15T05:54:06;37.93;;;23.67;;
39554;SDS011;25231;48.746;9.234;2023-02-15T05:56:32;36.00;;;24.00;;
39554;SDS011;25231;48.746;9.234;2023-02-15T05:58:57;38.07;;;24.50;;
39554;SDS011;25231;48.746;9.234;2023-02-15T06:01:22;33.37;;;24.23;;
39554;SDS011;25231;48.746;9.234;2023-02-15T06:03:48;34.03;;;23.93;;
39554;SDS011;25231;48.746;9.234;2023-02-15T06:06:13;34.97;;;24.50;;
39554;SDS011;25231;48.746;9.234;2023-02-15T06:08:39;36.43;;;24.03;;
39554;SDS011;25231;48.746;9.234;2023-02-15T06:11:04;38.23;;;23.97;;
39554;SDS011;25231;48.746;9.234;2023-02-15T06:13:31;34.73;;;23.30;;
39554;SDS011;25231;48.746;9.234;2023-02-15T06:15:58;33.23;;;23.30;;
39554;SDS011;25231;48.746;9.234;2023-02-15T06:18:23;39.87;;;24.50;;
39554;SDS011;25231;48.746;9.234;2023-02-15T06:20:49;33.00;;;22.17;;
39554;SDS011;25231;48.746;9.234;2023-02-15T06:23:14;36.77;;;23.80;;
39554;SDS011;25231;48.746;9.234;2023-02-15T06:25:40;37.97;;;24.43;;
39554;SDS011;25231;48.746;9.234;2023-02-15T06:28:06;36.07;;;25.13;;
39554;SDS011;25231;48.746;9.234;2023-02-15T06:30:31;37.03;;;24.93;;
39554;SDS011;25231;48.746;9.234;2023-02-15T06:32:57;36.63;;;24.17;;
39554;SDS011;25231;48.746;9.234;2023-02-15T06:35:22;34.37;;;23.67;;
39554;SDS011;25231;48.746;9.234;2023-02-15T06:37:48;37.77;;;23.27;;
39554;SDS011;25231;48.746;9.234;2023-02-15T06:40:13;35.63;;;24.03;;
39554;SDS011;25231;48.746;9.234;2023-02-15T06:42:39;34.93;;;25.10;;
39554;SDS011;25231;48.746;9.234;2023-02-15T06:45:05;35.63;;;24.10;;
39554;SDS011;25231;48.746;9.234;2023-02-15T06:47:31;33.03;;;23.57;;
39554;SDS011;25231;48.746;9.234;2023-02-15T06:49:56;38.93;;;24.67;;
39554;SDS011;25231;48.746;9.234;2023-02-15T06:52:22;34.30;;;24.27;;
39554;SDS011;25231;48.746;9.234;2023-02-15T06:54:47;34.80;;;23.83;;
39554;SDS011;25231;48.746;9.234;2023-02-15T06:57:13;37.27;;;23.53;;
39554;SDS011;25231;48.746;9.234;2023-02-15T06:59:38;32.43;;;23.83;;
39554;SDS011;25231;48.746;9.234;2023-02-15T07:02:03;33.00;;;23.80;;
39554;SDS011;25231;48.746;9.234;2023-02-15T07:04:29;37.57;;;24.73;;
39554;SDS011;25231;48.746;9.234;2023-02-15T07:06:54;37.73;;;25.87;;
39554;SDS011;25231;48.746;9.234;2023-02-15T07:09:20;35.77;;;24.90;;
39554;SDS011;25231;48.746;9.234;2023-02-15T07:11:46;34.73;;;24.17;;
39554;SDS011;25231;48.746;9.234;2023-02-15T07:14:30;36.73;;;24.83;;
39554;SDS011;25231;48.746;9.234;2023-02-15T07:16:55;37.67;;;25.20;;
39554;SDS011;25231;48.746;9.234;2023-02-15T07:19:21;36.03;;;23.97;;
39554;SDS011;25231;48.746;9.234;2023-02-15T07:21:46;36.63;;;23.97;;
39554;SDS011;25231;48.746;9.234;2023-02-15T07:24:11;32.50;;;23.60;;
39554;SDS011;25231;48.746;9.234;2023-02-15T07:26:37;35.27;;;24.30;;
39554;SDS011;25231;48.746;9.234;2023-02-15T07:29:02;34.97;;;22.90;;
39554;SDS011;25231;48.746;9.234;2023-02-15T07:31:28;31.43;;;22.83;;
39554;SDS011;25231;48.746;9.234;2023-02-15T07:33:53;28.93;;;20.73;;
39554;SDS011;25231;48.746;9.234;2023-02-15T07:36:18;29.33;;;20.73;;
39554;SDS011;25231;48.746;9.234;2023-02-15T07:38:44;28.73;;;20.63;;
39554;SDS011;25231;48.746;9.234;2023-02-15T07:41:11;29.07;;;20.57;;
39554;SDS011;25231;48.746;9.234;2023-02-15T07:43:39;29.30;;;21.33;;
39554;SDS011;25231;48.746;9.234;2023-02-15T07:46:06;27.63;;;21.10;;
39554;SDS011;25231;48.746;9.234;2023-02-15T07:48:36;26.50;;;19.97;;
39554;SDS011;25231;48.746;9.234;2023-02-15T07:51:04;27.93;;;20.57;;
39554;SDS011;25231;48.746;9.234;2023-02-15T07:53:31;26.93;;;19.90;;
39554;SDS011;25231;48.746;9.234;2023-02-15T07:56:00;25.07;;;19.47;;
39554;SDS011;25231;48.746;9.234;2023-02-15T07:58:26;28.03;;;20.33;;
39554;SDS011;25231;48.746;9.234;2023-02-15T08:01:11;23.37;;;19.07;;
39554;SDS011;25231;48.746;9.234;2023-02-15T08:03:37;27.67;;;20.57;;
39554;SDS011;25231;48.746;9.234;2023-02-15T08:06:03;21.57;;;18.37;;
39554;SDS011;25231;48.746;9.234;2023-02-15T08:08:28;23.77;;;17.80;;
39554;SDS011;25231;48.746;9.234;2023-02-15T08:11:00;25.13;;;18.60;;
39554;SDS011;25231;48.746;9.234;2023-02-15T08:13:45;25.30;;;19.30;;
39554;SDS011;25231;48.746;9.234;2023-02-15T08:19:01;36.90;;;33.40;;
39554;SDS011;25231;48.746;9.234;2023-02-15T08:21:29;43.70;;;39.83;;
39554;SDS011;25231;48.746;9.234;2023-02-15T08:23:55;33.80;;;30.63;;
39554;SDS011;25231;48.746;9.234;2023-02-15T08:26:21;28.00;;;25.20;;
39554;SDS011;25231;48.746;9.234;2023-02-15T08:28:47;24.97;;;17.57;;
39554;SDS011;25231;48.746;9.234;2023-02-15T08:31:13;25.40;;;19.57;;
39554;SDS011;25231;48.746;9.234;2023-02-15T08:33:40;24.73;;;17.63;;
39554;SDS011;25231;48.746;9.234;2023-02-15T08:36:07;21.87;;;18.97;;
39554;SDS011;25231;48.746;9.234;2023-02-15T08:38:34;23.13;;;17.50;;
39554;SDS011;25231;48.746;9.234;2023-02-15T08:41:10;22.90;;;17.50;;
39554;SDS011;25231;48.746;9.234;2023-02-15T08:43:37;21.07;;;17.03;;
39554;SDS011;25231;48.746;9.234;2023-02-15T08:46:03;24.57;;;18.67;;
39554;SDS011;25231;48.746;9.234;2023-02-15T08:48:29;27.87;;;18.57;;
39554;SDS011;25231;48.746;9.234;2023-02-15T08:50:55;24.53;;;19.27;;
39554;SDS011;25231;48.746;9.234;2023-02-15T08:53:20;24.70;;;18.00;;
39554;SDS011;25231;48.746;9.234;2023-02-15T08:55:46;23.40;;;18.27;;
39554;SDS011;25231;48.746;9.234;2023-02-15T08:58:12;31.10;;;19.00;;
39554;SDS011;25231;48.746;9.234;2023-02-15T09:00:38;25.57;;;18.73;;
39554;SDS011;25231;48.746;9.234;2023-02-15T09:03:03;24.83;;;18.30;;
39554;SDS011;25231;48.746;9.234;2023-02-15T09:05:28;26.97;;;18.77;;
39554;SDS011;25231;48.746;9.234;2023-02-15T09:07:54;25.23;;;18.67;;
39554;SDS011;25231;48.746;9.234;2023-02-15T09:10:19;26.27;;;20.33;;
39554;SDS011;25231;48.746;9.234;2023-02-15T09:12:45;23.27;;;18.53;;
39554;SDS011;25231;48.746;9.234;2023-02-15T09:15:10;26.53;;;18.07;;
39554;SDS011;25231;48.746;9.234;2023-02-15T09:17:36;24.80;;;18.77;;
39554;SDS011;25231;48.746;9.234;2023-02-15T09:20:01;25.10;;;18.97;;
39554;SDS011;25231;48.746;9.234;2023-02-15T09:22:27;23.90;;;18.60;;
39554;SDS011;25231;48.746;9.234;2023-02-15T09:24:53;27.03;;;20.03;;
39554;SDS011;25231;48.746;9.234;2023-02-15T09:27:18;26.43;;;18.87;;
39554;SDS011;25231;48.746;9.234;2023-02-15T09:29:43;23.87;;;18.07;;
39554;SDS011;25231;48.746;9.234;2023-02-15T09:32:09;23.60;;;18.23;;
39554;SDS011;25231;48.746;9.234;2023-02-15T09:34:38;23.90;;;18.77;;
39554;SDS011;25231;48.746;9.234;2023-02-15T09:37:04;28.80;;;18.53;;
39554;SDS011;25231;48.746;9.234;2023-02-15T09:39:30;24.60;;;19.50;;
39554;SDS011;25231;48.746;9.234;2023-02-15T09:42:10;29.80;;;20.57;;
39554;SDS011;25231;48.746;9.234;2023-02-15T09:45:01;25.13;;;19.83;;
39554;SDS011;25231;48.746;9.234;2023-02-15T09:50:39;31.00;;;18.27;;
39554;SDS011;25231;48.746;9.234;2023-02-15T10:06:38;24.83;;;19.57;;
39554;SDS011;25231;48.746;9.234;2023-02-15T10:14:49;26.70;;;21.50;;
39554;SDS011;25231;48.746;9.234;2023-02-15T10:17:37;26.13;;;21.23;;
39554;SDS011;25231;48.746;9.234;2023-02-15T10:25:31;25.03;;;19.00;;
39554;SDS011;25231;48.746;9.234;2023-02-15T10:28:23;28.03;;;20.00;;
39554;SDS011;25231;48.746;9.234;2023-02-15T10:30:57;27.17;;;19.03;;
39554;SDS011;25231;48.746;9.234;2023-02-15T10:38:37;24.90;;;19.63;;
39554;SDS011;25231;48.746;9.234;2023-02-15T10:44:05;27.20;;;18.50;;
39554;SDS011;25231;48.746;9.234;2023-02-15T10:54:43;18.60;;;15.13;;
39554;SDS011;25231;48.746;9.234;2023-02-15T10:58:08;20.60;;;16.57;;
39554;SDS011;25231;48.746;9.234;2023-02-15T11:00:52;21.53;;;16.30;;
39554;SDS011;25231;48.746;9.234;2023-02-15T11:03:42;19.90;;;17.83;;
39554;SDS011;25231;48.746;9.234;2023-02-15T11:06:35;16.23;;;14.57;;
39554;SDS011;25231;48.746;9.234;2023-02-15T11:09:13;17.57;;;14.27;;
39554;SDS011;25231;48.746;9.234;2023-02-15T11:11:43;15.20;;;13.63;;
39554;SDS011;25231;48.746;9.234;2023-02-15T11:14:17;16.70;;;14.80;;
39554;SDS011;25231;48.746;9.234;2023-02-15T11:16:53;16.77;;;15.03;;
39554;SDS011;25231;48.746;9.234;2023-02-15T11:19:34;19.23;;;16.73;;
39554;SDS011;25231;48.746;9.234;2023-02-15T11:22:04;28.03;;;23.13;;
39554;SDS011;25231;48.746;9.234;2023-02-15T11:24:32;25.30;;;22.20;;
39554;SDS011;25231;48.746;9.234;2023-02-15T11:35:22;26.93;;;24.17;;
39554;SDS011;25231;48.746;9.234;2023-02-15T11:40:35;25.33;;;22.63;;
39554;SDS011;25231;48.746;9.234;2023-02-15T11:43:15;26.73;;;23.93;;
39554;SDS011;25231;48.746;9.234;2023-02-15T11:45:45;28.57;;;22.47;;
39554;SDS011;25231;48.746;9.234;2023-02-15T11:48:12;29.37;;;25.10;;
39554;SDS011;25231;48.746;9.234;2023-02-15T11:50:39;32.03;;;25.47;;
39554;SDS011;25231;48.746;9.234;2023-02-15T11:53:06;29.67;;;23.60;;
39554;SDS011;25231;48.746;9.234;2023-02-15T11:55:37;29.23;;;26.10;;
39554;SDS011;25231;48.746;9.234;2023-02-15T11:58:16;31.40;;;24.90;;
39554;SDS011;25231;48.746;9.234;2023-02-15T12:00:52;31.23;;;26.70;;
39554;SDS011;25231;48.746;9.234;2023-02-15T12:06:01;31.67;;;22.80;;
39554;SDS011;25231;48.746;9.234;2023-02-15T12:08:34;28.07;;;24.97;;
39554;SDS011;25231;48.746;9.234;2023-02-15T12:11:06;32.03;;;25.30;;
39554;SDS011;25231;48.746;9.234;2023-02-15T12:13:37;31.20;;;23.03;;
39554;SDS011;25231;48.746;9.234;2023-02-15T12:16:19;29.63;;;26.50;;
39554;SDS011;25231;48.746;9.234;2023-02-15T12:18:45;33.80;;;25.23;;
39554;SDS011;25231;48.746;9.234;2023-02-15T12:21:14;27.90;;;24.93;;
39554;SDS011;25231;48.746;9.234;2023-02-15T12:23:50;28.90;;;22.73;;
39554;SDS011;25231;48.746;9.234;2023-02-15T12:26:27;35.73;;;32.37;;
39554;SDS011;25231;48.746;9.234;2023-02-15T12:28:54;27.03;;;22.67;;
39554;SDS011;25231;48.746;9.234;2023-02-15T12:34:21;28.57;;;23.83;;
39554;SDS011;25231;48.746;9.234;2023-02-15T12:36:51;26.37;;;19.60;;
39554;SDS011;25231;48.746;9.234;2023-02-15T12:39:28;28.37;;;19.90;;
39554;SDS011;25231;48.746;9.234;2023-02-15T12:42:15;23.60;;;18.97;;
39554;SDS011;25231;48.746;9.234;2023-02-15T12:44:54;28.37;;;21.33;;
39554;SDS011;25231;48.746;9.234;2023-02-15T12:47:28;25.00;;;21.87;;
39554;SDS011;25231;48.746;9.234;2023-02-15T12:53:59;25.47;;;19.67;;
39554;SDS011;25231;48.746;9.234;2023-02-15T12:56:02;23.90;;;19.90;;
39554;SDS011;25231;48.746;9.234;2023-02-15T12:58:32;31.60;;;21.17;;
39554;SDS011;25231;48.746;9.234;2023-02-15T13:01:04;25.20;;;22.50;;
39554;SDS011;25231;48.746;9.234;2023-02-15T13:03:34;25.33;;;21.30;;
39554;SDS011;25231;48.746;9.234;2023-02-15T13:06:01;27.93;;;20.63;;
39554;SDS011;25231;48.746;9.234;2023-02-15T13:08:33;26.83;;;21.90;;
39554;SDS011;25231;48.746;9.234;2023-02-15T13:11:06;27.00;;;21.97;;
39554;SDS011;25231;48.746;9.234;2023-02-15T13:13:36;27.43;;;24.33;;
39554;SDS011;25231;48.746;9.234;2023-02-15T13:16:26;25.57;;;22.40;;
39554;SDS011;25231;48.746;9.234;2023-02-15T13:19:16;26.10;;;22.63;;
39554;SDS011;25231;48.746;9.234;2023-02-15T13:21:52;29.43;;;24.13;;
39554;SDS011;25231;48.746;9.234;2023-02-15T13:26:49;47.03;;;42.63;;
39554;SDS011;25231;48.746;9.234;2023-02-15T13:29:25;51.47;;;47.00;;
39554;SDS011;25231;48.746;9.234;2023-02-15T13:31:57;49.67;;;45.47;;
39554;SDS011;25231;48.746;9.234;2023-02-15T13:34:28;40.53;;;36.90;;
39554;SDS011;25231;48.746;9.234;2023-02-15T13:37:01;45.23;;;41.27;;
39554;SDS011;25231;48.746;9.234;2023-02-15T13:42:13;33.87;;;30.60;;
39554;SDS011;25231;48.746;9.234;2023-02-15T13:55:37;26.03;;;22.33;;
39554;SDS011;25231;48.746;9.234;2023-02-15T13:58:13;28.07;;;19.67;;
39554;SDS011;25231;48.746;9.234;2023-02-15T14:00:58;25.27;;;20.93;;
39554;SDS011;25231;48.746;9.234;2023-02-15T14:09:17;28.73;;;22.57;;
39554;SDS011;25231;48.746;9.234;2023-02-15T14:11:58;23.17;;;19.27;;
39554;SDS011;25231;48.746;9.234;2023-02-15T14:25:54;20.23;;;18.00;;
39554;SDS011;25231;48.746;9.234;2023-02-15T14:28:51;22.27;;;18.00;;
39554;SDS011;25231;48.746;9.234;2023-02-15T14:31:18;19.10;;;14.20;;
39554;SDS011;25231;48.746;9.234;2023-02-15T14:33:55;19.53;;;17.63;;
39554;SDS011;25231;48.746;9.234;2023-02-15T14:36:21;20.97;;;18.30;;
39554;SDS011;25231;48.746;9.234;2023-02-15T14:42:07;21.00;;;18.77;;
39554;SDS011;25231;48.746;9.234;2023-02-15T14:45:04;25.10;;;17.60;;
39554;SDS011;25231;48.746;9.234;2023-02-15T14:47:42;21.63;;;15.73;;
39554;SDS011;25231;48.746;9.234;2023-02-15T14:55:40;24.83;;;16.73;;
39554;SDS011;25231;48.746;9.234;2023-02-15T14:58:12;19.23;;;14.93;;
39554;SDS011;25231;48.746;9.234;2023-02-15T15:00:39;22.40;;;18.93;;
39554;SDS011;25231;48.746;9.234;2023-02-15T15:03:24;22.20;;;19.23;;
39554;SDS011;25231;48.746;9.234;2023-02-15T15:05:54;23.77;;;21.40;;
39554;SDS011;25231;48.746;9.234;2023-02-15T15:08:26;20.17;;;17.80;;
39554;SDS011;25231;48.746;9.234;2023-02-15T15:13:56;21.07;;;16.40;;
39554;SDS011;25231;48.746;9.234;2023-02-15T15:16:30;20.17;;;16.73;;
39554;SDS011;25231;48.746;9.234;2023-02-15T15:19:12;19.53;;;15.90;;
39554;SDS011;25231;48.746;9.234;2023-02-15T15:27:44;19.13;;;15.73;;
39554;SDS011;25231;48.746;9.234;2023-02-15T15:32:41;28.67;;;17.47;;
39554;SDS011;25231;48.746;9.234;2023-02-15T15:35:33;20.43;;;17.63;;
39554;SDS011;25231;48.746;9.234;2023-02-15T15:38:18;25.80;;;20.37;;
39554;SDS011;25231;48.746;9.234;2023-02-15T15:49:12;24.10;;;17.37;;
39554;SDS011;25231;48.746;9.234;2023-02-15T15:51:41;20.33;;;18.17;;
39554;SDS011;25231;48.746;9.234;2023-02-15T15:54:15;24.10;;;20.10;;
39554;SDS011;25231;48.746;9.234;2023-02-15T15:56:49;23.70;;;17.67;;
39554;SDS011;25231;48.746;9.234;2023-02-15T15:59:19;26.23;;;18.83;;
39554;SDS011;25231;48.746;9.234;2023-02-15T16:01:48;27.03;;;17.90;;
39554;SDS011;25231;48.746;9.234;2023-02-15T16:04:31;22.60;;;18.40;;
39554;SDS011;25231;48.746;9.234;2023-02-15T16:06:58;26.67;;;20.83;;
39554;SDS011;25231;48.746;9.234;2023-02-15T16:12:29;22.60;;;19.53;;
39554;SDS011;25231;48.746;9.234;2023-02-15T16:14:57;22.53;;;17.03;;
39554;SDS011;25231;48.746;9.234;2023-02-15T16:17:26;25.80;;;18.43;;
39554;SDS011;25231;48.746;9.234;2023-02-15T16:20:20;31.03;;;19.73;;
39554;SDS011;25231;48.746;9.234;2023-02-15T16:22:46;28.47;;;18.20;;
39554;SDS011;25231;48.746;9.234;2023-02-15T16:25:23;22.33;;;16.87;;
39554;SDS011;25231;48.746;9.234;2023-02-15T16:27:54;27.63;;;18.90;;
39554;SDS011;25231;48.746;9.234;2023-02-15T16:30:24;21.53;;;17.67;;
39554;SDS011;25231;48.746;9.234;2023-02-15T16:35:57;24.47;;;16.77;;
39554;SDS011;25231;48.746;9.234;2023-02-15T16:38:38;22.17;;;15.10;;
39554;SDS011;25231;48.746;9.234;2023-02-15T16:41:30;23.37;;;16.70;;
39554;SDS011;25231;48.746;9.234;2023-02-15T16:43:56;21.73;;;16.03;;
39554;SDS011;25231;48.746;9.234;2023-02-15T16:46:41;20.63;;;17.07;;
39554;SDS011;25231;48.746;9.234;2023-02-15T16:49:15;19.20;;;16.93;;
39554;SDS011;25231;48.746;9.234;2023-02-15T16:51:44;20.77;;;16.73;;
39554;SDS011;25231;48.746;9.234;2023-02-15T16:54:19;18.47;;;15.27;;
39554;SDS011;25231;48.746;9.234;2023-02-15T16:56:46;20.97;;;15.43;;
39554;SDS011;25231;48.746;9.234;2023-02-15T16:59:18;22.43;;;16.00;;
39554;SDS011;25231;48.746;9.234;2023-02-15T17:01:53;23.07;;;17.40;;
39554;SDS011;25231;48.746;9.234;2023-02-15T17:07:06;20.30;;;16.80;;
39554;SDS011;25231;48.746;9.234;2023-02-15T17:09:56;51.60;;;47.17;;
39554;SDS011;25231;48.746;9.234;2023-02-15T17:18:06;22.30;;;16.90;;
39554;SDS011;25231;48.746;9.234;2023-02-15T17:20:39;21.47;;;17.10;;
39554;SDS011;25231;48.746;9.234;2023-02-15T17:23:15;23.30;;;16.47;;
39554;SDS011;25231;48.746;9.234;2023-02-15T17:25:46;18.53;;;15.10;;
39554;SDS011;25231;48.746;9.234;2023-02-15T17:28:15;22.00;;;18.40;;
39554;SDS011;25231;48.746;9.234;2023-02-15T17:30:43;23.97;;;18.03;;
39554;SDS011;25231;48.746;9.234;2023-02-15T17:33:35;23.37;;;20.60;;
39554;SDS011;25231;48.746;9.234;2023-02-15T17:38:30;20.27;;;16.47;;
39554;SDS011;25231;48.746;9.234;2023-02-15T17:40:56;21.40;;;15.30;;
39554;SDS011;25231;48.746;9.234;2023-02-15T17:43:23;24.67;;;16.73;;